createdAt,value
2023-08-27T00:01:16.523Z,3.05
2023-08-27T00:03:43.942Z,2.42
2023-08-27T00:06:11.315Z,1.75
2023-08-27T00:08:38.255Z,2.90
2023-08-27T00:11:05.750Z,2.03
2023-08-27T00:13:33.240Z,4.70
2023-08-27T00:16:00.364Z,3.30
2023-08-27T00:18:27.304Z,3.38
2023-08-27T00:20:54.165Z,3.40
2023-08-27T00:23:21.065Z,2.67
2023-08-27T00:25:47.890Z,3.17
2023-08-27T00:28:15.292Z,2.45
2023-08-27T00:30:43.209Z,1.45
2023-08-27T00:33:10.260Z,3.15
2023-08-27T00:35:38.086Z,1.60
2023-08-27T00:38:08.493Z,2.50
2023-08-27T00:40:35.754Z,2.67
2023-08-27T00:43:03.970Z,2.25
2023-08-27T00:45:31.692Z,2.50
2023-08-27T00:47:59.156Z,3.08
2023-08-27T00:50:26.737Z,1.30
2023-08-27T00:52:55.278Z,2.22
2023-08-27T00:55:22.582Z,3.55
2023-08-27T00:57:50.304Z,2.58
2023-08-27T01:00:19.000Z,2.50
2023-08-27T01:02:47.482Z,2.40
2023-08-27T01:05:14.964Z,2.22
2023-08-27T01:07:55.734Z,2.90
2023-08-27T01:10:28.605Z,3.88
2023-08-27T01:13:06.945Z,4.28
2023-08-27T01:15:34.944Z,3.25
2023-08-27T01:18:04.134Z,2.63
2023-08-27T01:20:32.353Z,4.22
2023-08-27T01:23:00.216Z,3.25
2023-08-27T01:25:54.380Z,4.03
2023-08-27T01:28:34.234Z,3.00
2023-08-27T01:31:12.953Z,2.13
2023-08-27T01:33:41.508Z,2.75
2023-08-27T01:36:11.561Z,2.65
2023-08-27T01:38:38.438Z,1.52
2023-08-27T01:41:07.679Z,1.60
2023-08-27T01:43:34.973Z,3.72
2023-08-27T01:46:01.871Z,5.72
2023-08-27T01:48:28.703Z,2.05
2023-08-27T01:50:56.085Z,1.88
2023-08-27T01:53:23.558Z,2.85
2023-08-27T01:55:50.414Z,2.42
2023-08-27T01:58:17.267Z,3.20
2023-08-27T02:00:44.409Z,4.95
2023-08-27T02:03:11.383Z,5.78
2023-08-27T02:05:38.332Z,2.72
2023-08-27T02:08:05.285Z,2.47
2023-08-27T02:10:32.126Z,2.33
2023-08-27T02:12:59.209Z,2.40
2023-08-27T02:15:26.382Z,2.25
2023-08-27T02:17:53.227Z,3.58
2023-08-27T02:20:20.158Z,2.90
2023-08-27T02:22:47.005Z,2.35
2023-08-27T02:25:14.103Z,2.22
2023-08-27T02:27:40.964Z,2.17
2023-08-27T02:30:08.542Z,4.53
2023-08-27T02:32:36.311Z,2.65
2023-08-27T02:35:03.857Z,2.17
2023-08-27T02:37:30.681Z,1.38
2023-08-27T02:39:57.531Z,2.05
2023-08-27T02:42:24.625Z,1.67
2023-08-27T02:44:51.479Z,1.42
2023-08-27T02:47:18.491Z,2.45
2023-08-27T02:49:45.466Z,2.20
2023-08-27T02:52:12.320Z,1.30
2023-08-27T02:54:39.271Z,2.40
2023-08-27T02:57:06.327Z,1.45
2023-08-27T02:59:33.913Z,1.65
2023-08-27T03:02:01.054Z,1.90
2023-08-27T03:04:27.941Z,1.98
2023-08-27T03:06:54.841Z,1.80
2023-08-27T03:09:21.767Z,2.30
2023-08-27T03:11:48.583Z,1.42
2023-08-27T03:14:15.394Z,3.17
2023-08-27T03:16:42.342Z,2.53
2023-08-27T03:19:10.113Z,2.72
2023-08-27T03:21:36.956Z,6.47
2023-08-27T03:24:03.971Z,5.85
2023-08-27T03:26:30.859Z,1.85
2023-08-27T03:28:57.729Z,1.30
2023-08-27T03:31:24.635Z,1.83
2023-08-27T03:33:51.478Z,3.03
2023-08-27T03:36:18.486Z,2.20
2023-08-27T03:38:45.344Z,1.60
2023-08-27T03:41:12.209Z,2.40
2023-08-27T03:43:39.095Z,4.15
2023-08-27T03:46:06.090Z,2.38
2023-08-27T03:48:32.968Z,1.70
2023-08-27T03:51:00.041Z,1.70
2023-08-27T03:53:26.935Z,1.77
2023-08-27T03:55:54.561Z,3.00
2023-08-27T03:58:21.750Z,2.72
2023-08-27T04:00:49.624Z,2.20
2023-08-27T04:03:16.663Z,2.08
2023-08-27T04:05:43.611Z,1.20
2023-08-27T04:08:10.652Z,1.52
2023-08-27T04:10:37.527Z,1.10
2023-08-27T04:13:04.948Z,1.80
2023-08-27T04:15:31.910Z,1.05
2023-08-27T04:17:58.790Z,1.60
2023-08-27T04:20:26.176Z,2.55
2023-08-27T04:22:53.033Z,2.60
2023-08-27T04:25:19.875Z,5.65
2023-08-27T04:27:46.810Z,3.35
2023-08-27T04:30:14.218Z,3.72
2023-08-27T04:32:41.150Z,4.13
2023-08-27T04:35:09.027Z,1.50
2023-08-27T04:37:37.139Z,2.50
2023-08-27T04:40:04.713Z,3.17
2023-08-27T04:42:31.724Z,1.77
2023-08-27T04:44:58.716Z,3.22
2023-08-27T04:47:25.794Z,2.45
2023-08-27T04:49:53.355Z,2.22
2023-08-27T04:52:31.453Z,1.42
2023-08-27T04:54:59.646Z,3.63
2023-08-27T04:57:26.924Z,2.67
2023-08-27T04:59:55.739Z,3.90
2023-08-27T05:02:22.736Z,2.35
2023-08-27T05:04:49.646Z,2.40
2023-08-27T05:07:17.209Z,4.32
2023-08-27T05:09:44.269Z,2.97
2023-08-27T05:12:11.302Z,1.73
2023-08-27T05:14:38.179Z,3.40
2023-08-27T05:17:05.077Z,1.30
2023-08-27T05:19:33.844Z,1.85
2023-08-27T05:22:02.081Z,2.83
2023-08-27T05:24:29.307Z,1.48
2023-08-27T05:26:56.245Z,4.40
2023-08-27T05:29:23.087Z,1.63
2023-08-27T05:31:50.254Z,6.75
2023-08-27T05:34:17.103Z,2.97
2023-08-27T05:36:44.063Z,1.80
2023-08-27T05:39:11.034Z,4.90
2023-08-27T05:41:37.916Z,2.65
2023-08-27T05:44:05.083Z,3.22
2023-08-27T05:46:32.803Z,1.30
2023-08-27T05:49:01.395Z,3.15
2023-08-27T05:51:28.738Z,3.17
2023-08-27T05:53:56.625Z,2.15
2023-08-27T05:56:23.691Z,1.30
2023-08-27T05:58:50.565Z,1.90
2023-08-27T06:01:18.068Z,1.30
2023-08-27T06:03:45.134Z,1.35
2023-08-27T06:06:12.272Z,3.20
2023-08-27T06:08:39.338Z,1.58
2023-08-27T06:11:06.271Z,1.88
2023-08-27T06:13:33.206Z,1.65
2023-08-27T06:16:00.166Z,2.03
2023-08-27T06:18:27.176Z,1.67
2023-08-27T06:20:54.094Z,3.33
2023-08-27T06:23:21.017Z,2.72
2023-08-27T06:25:48.101Z,2.67
2023-08-27T06:28:16.422Z,2.10
2023-08-27T06:30:43.346Z,2.58
2023-08-27T06:33:10.837Z,5.47
2023-08-27T06:35:38.077Z,2.28
2023-08-27T06:38:06.051Z,1.80
2023-08-27T06:40:32.936Z,1.88
2023-08-27T06:43:00.257Z,2.17
2023-08-27T06:45:33.719Z,3.55
2023-08-27T06:48:01.084Z,2.33
2023-08-27T06:50:28.303Z,1.95
2023-08-27T06:52:57.526Z,3.17
2023-08-27T06:55:24.546Z,3.17
2023-08-27T06:57:51.464Z,5.22
2023-08-27T07:00:18.582Z,2.22
2023-08-27T07:02:45.717Z,3.05
2023-08-27T07:05:13.573Z,1.75
2023-08-27T07:07:41.456Z,3.15
2023-08-27T07:10:09.372Z,3.80
2023-08-27T07:12:37.728Z,2.35
2023-08-27T07:15:06.858Z,3.75
2023-08-27T07:17:34.425Z,1.73
2023-08-27T07:20:05.262Z,3.80
2023-08-27T07:22:32.341Z,2.55
2023-08-27T07:24:59.263Z,2.47
2023-08-27T07:27:26.627Z,2.90
2023-08-27T07:29:54.924Z,3.70
2023-08-27T07:32:21.873Z,2.58
2023-08-27T07:34:48.752Z,3.35
2023-08-27T07:37:17.403Z,2.78
2023-08-27T07:39:44.548Z,3.28
2023-08-27T07:42:11.434Z,2.08
2023-08-27T07:44:38.879Z,4.25
2023-08-27T07:47:06.007Z,2.42
2023-08-27T07:49:32.931Z,2.42
2023-08-27T07:52:02.379Z,5.60
2023-08-27T07:54:30.231Z,2.92
2023-08-27T07:56:58.394Z,2.50
2023-08-27T07:59:25.243Z,3.63
2023-08-27T08:01:52.714Z,2.47
2023-08-27T08:04:19.705Z,2.95
2023-08-27T08:06:46.543Z,2.50
2023-08-27T08:09:14.768Z,3.50
2023-08-27T08:11:41.880Z,2.72
2023-08-27T08:14:08.967Z,4.00
2023-08-27T08:16:35.948Z,7.10
2023-08-27T08:19:02.833Z,4.88
2023-08-27T08:21:30.116Z,4.90
2023-08-27T08:23:57.086Z,3.60
2023-08-27T08:26:24.539Z,4.10
2023-08-27T08:28:51.429Z,4.65
2023-08-27T08:31:18.353Z,5.40
2023-08-27T08:33:45.390Z,4.05
2023-08-27T08:36:12.326Z,4.78
2023-08-27T08:38:39.377Z,5.13
2023-08-27T08:41:08.056Z,5.22
2023-08-27T08:43:44.557Z,4.82
2023-08-27T08:46:14.388Z,6.07
2023-08-27T08:48:43.731Z,5.43
2023-08-27T08:51:12.786Z,4.35
2023-08-27T08:53:46.049Z,7.35
2023-08-27T08:56:16.721Z,7.40
2023-08-27T08:58:51.523Z,5.38
2023-08-27T09:01:20.586Z,4.97
2023-08-27T09:03:49.435Z,4.40
2023-08-27T09:06:20.290Z,3.97
2023-08-27T09:08:48.292Z,4.05
2023-08-27T09:11:18.334Z,3.85
2023-08-27T09:13:46.054Z,5.03
2023-08-27T09:16:13.115Z,4.45
2023-08-27T09:18:40.029Z,4.35
2023-08-27T09:21:08.188Z,2.95
2023-08-27T09:23:39.010Z,4.28
2023-08-27T09:26:07.105Z,3.63
2023-08-27T09:28:36.828Z,4.38
2023-08-27T09:31:03.804Z,7.85
2023-08-27T09:33:38.006Z,3.42
2023-08-27T09:38:34.092Z,2.70
2023-08-27T09:41:13.365Z,3.15
2023-08-27T09:43:40.427Z,3.22
2023-08-27T09:46:12.241Z,3.88
2023-08-27T09:48:39.210Z,3.35
2023-08-27T09:51:11.079Z,4.35
2023-08-27T09:53:38.242Z,2.70
2023-08-27T09:56:05.551Z,2.97
2023-08-27T09:58:32.656Z,2.58
2023-08-27T10:01:00.764Z,2.13
2023-08-27T10:03:30.642Z,2.70
2023-08-27T10:05:58.219Z,1.85
2023-08-27T10:08:25.513Z,2.55
2023-08-27T10:10:52.830Z,1.85
2023-08-27T10:13:23.129Z,1.70
2023-08-27T10:15:51.267Z,2.60
2023-08-27T10:18:19.552Z,1.70
2023-08-27T10:20:47.780Z,2.42
2023-08-27T10:23:17.922Z,1.80
2023-08-27T10:25:49.603Z,2.28
2023-08-27T10:28:18.774Z,1.70
2023-08-27T10:30:46.785Z,1.70
2023-08-27T10:33:14.751Z,1.63
2023-08-27T10:35:43.292Z,1.90
2023-08-27T10:38:11.986Z,1.42
2023-08-27T10:40:39.791Z,1.50
2023-08-27T10:43:25.005Z,1.40
2023-08-27T10:45:53.142Z,2.53
2023-08-27T10:48:24.904Z,1.88
2023-08-27T10:51:08.871Z,1.20
2023-08-27T10:53:50.987Z,1.27
2023-08-27T10:56:29.168Z,1.85
2023-08-27T10:59:08.761Z,0.88
2023-08-27T11:01:56.224Z,0.85
2023-08-27T11:04:35.737Z,2.00
2023-08-27T11:07:11.263Z,1.65
2023-08-27T11:09:49.416Z,1.17
2023-08-27T11:12:36.564Z,2.50
2023-08-27T11:15:17.082Z,1.58
2023-08-27T11:17:45.937Z,1.25
2023-08-27T11:20:25.809Z,1.95
2023-08-27T11:23:02.243Z,1.42
2023-08-27T11:25:31.140Z,1.50
2023-08-27T11:28:02.705Z,2.10
2023-08-27T11:30:30.474Z,1.17
2023-08-27T11:32:58.179Z,2.22
2023-08-27T11:35:28.626Z,1.45
2023-08-27T11:37:56.144Z,1.23
2023-08-27T11:40:27.982Z,1.55
2023-08-27T11:42:57.197Z,1.67
2023-08-27T11:45:50.665Z,2.85
2023-08-27T11:48:18.297Z,2.35
2023-08-27T11:50:47.101Z,1.45
2023-08-27T11:53:14.365Z,3.08
2023-08-27T11:55:41.688Z,2.50
2023-08-27T11:58:08.538Z,2.08
2023-08-27T12:00:35.551Z,1.50
2023-08-27T12:03:03.212Z,2.30
2023-08-27T12:05:30.833Z,1.83
2023-08-27T12:07:58.507Z,1.70
2023-08-27T12:10:25.711Z,1.95
2023-08-27T12:12:52.693Z,1.52
2023-08-27T12:15:19.626Z,2.55
2023-08-27T12:17:48.520Z,2.13
2023-08-27T12:20:16.434Z,1.90
2023-08-27T12:22:44.838Z,1.30
2023-08-27T12:25:13.581Z,1.50
2023-08-27T12:27:43.932Z,1.33
2023-08-27T12:30:11.769Z,5.32
2023-08-27T12:32:39.001Z,1.65
2023-08-27T12:35:08.331Z,1.17
2023-08-27T12:37:36.140Z,1.48
2023-08-27T12:40:03.330Z,1.35
2023-08-27T12:42:30.195Z,1.02
2023-08-27T12:44:57.107Z,0.82
2023-08-27T12:47:24.468Z,1.67
2023-08-27T12:49:51.396Z,1.10
2023-08-27T12:52:19.398Z,1.23
2023-08-27T12:54:46.248Z,1.65
2023-08-27T12:57:13.082Z,1.30
2023-08-27T12:59:40.025Z,1.02
2023-08-27T13:06:20.277Z,1.63
2023-08-27T13:08:47.605Z,1.10
2023-08-27T13:11:14.802Z,1.33
2023-08-27T13:13:41.654Z,1.10
2023-08-27T13:16:08.675Z,2.83
2023-08-27T13:18:35.646Z,0.93
2023-08-27T13:21:02.500Z,0.90
2023-08-27T13:23:29.591Z,1.25
2023-08-27T13:25:56.596Z,3.90
2023-08-27T13:28:23.621Z,14.43
2023-08-27T13:30:50.691Z,17.45
2023-08-27T13:33:17.942Z,30.17
2023-08-27T13:35:45.110Z,53.33
2023-08-27T13:38:12.075Z,42.97
2023-08-27T13:40:39.478Z,22.67
2023-08-27T13:43:08.021Z,11.55
2023-08-27T13:45:35.472Z,8.50
2023-08-27T13:48:02.950Z,4.18
2023-08-27T13:50:30.680Z,2.85
2023-08-27T13:52:58.696Z,3.28
2023-08-27T13:55:25.604Z,2.03
2023-08-27T13:57:52.792Z,2.38
2023-08-27T14:00:20.022Z,1.70
2023-08-27T14:02:47.118Z,0.80
2023-08-27T14:05:14.082Z,1.05
2023-08-27T14:07:41.243Z,1.13
2023-08-27T14:10:08.718Z,1.08
2023-08-27T14:12:35.730Z,0.93
2023-08-27T14:15:02.945Z,0.73
2023-08-27T14:17:30.040Z,0.80
2023-08-27T14:19:56.974Z,0.77
2023-08-27T14:22:26.854Z,0.70
2023-08-27T14:24:53.858Z,0.80
2023-08-27T14:27:21.113Z,1.35
2023-08-27T14:29:48.276Z,0.80
2023-08-27T14:32:15.381Z,0.93
2023-08-27T14:34:42.856Z,2.25
2023-08-27T14:37:10.035Z,0.90
2023-08-27T14:39:39.846Z,1.08
2023-08-27T14:42:07.731Z,0.93
2023-08-27T14:44:34.820Z,1.13
2023-08-27T14:47:01.851Z,0.85
2023-08-27T14:49:28.813Z,0.90
2023-08-27T14:51:55.896Z,1.05
2023-08-27T14:54:24.228Z,1.73
2023-08-27T14:56:52.101Z,1.20
2023-08-27T14:59:42.198Z,2.63
2023-08-27T15:02:14.929Z,2.72
2023-08-27T15:04:43.302Z,1.35
2023-08-27T15:07:11.070Z,3.80
2023-08-27T15:09:38.198Z,1.27
2023-08-27T15:12:14.778Z,1.60
2023-08-27T15:14:41.794Z,0.82
2023-08-27T15:17:08.786Z,1.58
2023-08-27T15:19:35.843Z,1.73
2023-08-27T15:22:04.402Z,1.55
2023-08-27T15:24:31.621Z,1.58
2023-08-27T15:26:58.749Z,1.42
2023-08-27T15:29:26.568Z,1.38
2023-08-27T15:31:53.656Z,2.65
2023-08-27T15:34:20.752Z,1.40
2023-08-27T15:36:48.094Z,2.30
2023-08-27T15:39:15.164Z,2.50
2023-08-27T15:41:42.231Z,1.73
2023-08-27T15:44:09.275Z,1.48
2023-08-27T15:46:36.296Z,1.85
2023-08-27T15:49:04.286Z,1.05
2023-08-27T15:51:31.298Z,2.42
2023-08-27T15:53:58.316Z,1.35
2023-08-27T15:56:25.664Z,1.02
2023-08-27T15:58:52.720Z,1.60
2023-08-27T16:01:19.847Z,0.75
2023-08-27T16:03:47.021Z,2.88
2023-08-27T16:06:14.470Z,6.50
2023-08-27T16:08:41.734Z,7.20
2023-08-27T16:11:08.903Z,3.25
2023-08-27T16:13:37.525Z,2.83
2023-08-27T16:16:06.038Z,3.15
2023-08-27T16:18:33.242Z,1.70
2023-08-27T16:21:00.344Z,1.98
2023-08-27T16:23:28.514Z,0.88
2023-08-27T16:25:57.144Z,0.90
2023-08-27T16:28:24.350Z,0.85
2023-08-27T16:30:53.771Z,1.05
2023-08-27T16:33:20.902Z,1.05
2023-08-27T16:35:47.854Z,0.95
2023-08-27T16:38:14.814Z,0.70
2023-08-27T16:40:41.801Z,1.00
2023-08-27T16:43:09.558Z,0.90
2023-08-27T16:45:37.199Z,0.70
2023-08-27T16:48:04.990Z,1.65
2023-08-27T16:50:32.900Z,0.93
2023-08-27T16:52:59.998Z,0.70
2023-08-27T16:55:27.704Z,1.48
2023-08-27T16:57:54.869Z,0.70
2023-08-27T17:00:22.343Z,0.50
2023-08-27T17:02:54.459Z,1.17
2023-08-27T17:05:23.937Z,1.42
2023-08-27T17:07:51.502Z,0.52
2023-08-27T17:10:19.324Z,1.85
2023-08-27T17:12:48.494Z,0.95
2023-08-27T17:15:16.695Z,1.15
2023-08-27T17:17:43.998Z,0.68
2023-08-27T17:20:11.546Z,0.50
2023-08-27T17:22:39.767Z,0.73
2023-08-27T17:25:07.558Z,1.00
2023-08-27T17:27:34.963Z,0.57
2023-08-27T17:30:02.534Z,0.80
2023-08-27T17:32:29.700Z,0.60
2023-08-27T17:34:56.961Z,0.98
2023-08-27T17:37:24.130Z,0.65
2023-08-27T17:39:51.535Z,0.80
2023-08-27T17:42:18.509Z,0.88
2023-08-27T17:44:45.519Z,1.30
2023-08-27T17:47:13.131Z,0.85
2023-08-27T17:49:41.204Z,1.60
2023-08-27T17:52:08.363Z,0.93
2023-08-27T17:54:35.762Z,0.70
2023-08-27T17:57:02.833Z,0.80
2023-08-27T17:59:30.449Z,0.95
2023-08-27T18:01:58.103Z,1.23
2023-08-27T18:04:25.257Z,3.03
2023-08-27T18:06:52.742Z,1.88
2023-08-27T18:09:19.974Z,2.25
2023-08-27T18:11:47.864Z,0.80
2023-08-27T18:14:14.953Z,2.05
2023-08-27T18:16:42.306Z,1.10
2023-08-27T18:19:09.812Z,1.55
2023-08-27T18:21:36.902Z,0.98
2023-08-27T18:24:04.277Z,0.73
2023-08-27T18:26:31.919Z,1.98
2023-08-27T18:28:59.366Z,3.55
2023-08-27T18:31:27.041Z,1.95
2023-08-27T18:33:54.253Z,0.90
2023-08-27T18:36:21.477Z,2.17
2023-08-27T18:38:48.652Z,1.00
2023-08-27T18:41:15.903Z,2.03
2023-08-27T18:43:43.051Z,1.20
2023-08-27T18:46:10.157Z,0.93
2023-08-27T18:48:37.254Z,0.60
2023-08-27T18:51:04.674Z,0.82
2023-08-27T18:53:31.878Z,0.90
2023-08-27T18:55:59.124Z,0.73
2023-08-27T18:58:27.937Z,0.80
2023-08-27T19:00:55.557Z,0.60
2023-08-27T19:03:22.871Z,0.88
2023-08-27T19:05:50.000Z,1.52
2023-08-27T19:08:18.084Z,0.57
2023-08-27T19:10:45.201Z,0.70
2023-08-27T19:13:12.449Z,0.98
2023-08-27T19:15:39.858Z,3.15
2023-08-27T19:18:07.047Z,1.02
2023-08-27T19:20:35.046Z,0.75
2023-08-27T19:23:02.865Z,1.60
2023-08-27T19:25:32.211Z,0.57
2023-08-27T19:27:59.538Z,0.93
2023-08-27T19:30:27.836Z,0.80
2023-08-27T19:32:54.947Z,1.10
2023-08-27T19:35:22.064Z,2.10
2023-08-27T19:37:49.199Z,0.73
2023-08-27T19:40:17.280Z,1.67
2023-08-27T19:42:44.962Z,0.60
2023-08-27T19:45:13.666Z,0.82
2023-08-27T19:47:44.057Z,0.93
2023-08-27T19:50:11.488Z,1.05
2023-08-27T19:52:38.539Z,2.60
2023-08-27T19:55:05.848Z,1.38
2023-08-27T19:57:32.872Z,1.20
2023-08-27T19:59:59.955Z,1.80
2023-08-27T20:02:27.176Z,2.00
2023-08-27T20:04:54.791Z,1.15
2023-08-27T20:07:22.114Z,3.35
2023-08-27T20:09:51.289Z,0.80
2023-08-27T20:12:18.743Z,0.93
2023-08-27T20:14:45.815Z,0.70
2023-08-27T20:17:13.108Z,1.02
2023-08-27T20:19:40.183Z,1.20
2023-08-27T20:22:07.218Z,0.75
2023-08-27T20:24:34.226Z,1.83
2023-08-27T20:27:01.858Z,0.77
2023-08-27T20:29:29.044Z,0.68
2023-08-27T20:31:56.380Z,0.80
2023-08-27T20:34:23.662Z,0.60
2023-08-27T20:36:50.947Z,0.70
2023-08-27T20:39:19.164Z,2.15
2023-08-27T20:41:46.511Z,1.08
2023-08-27T20:44:16.884Z,0.80
2023-08-27T20:46:46.289Z,0.73
2023-08-27T20:49:16.685Z,0.60
2023-08-27T20:51:43.718Z,0.90
2023-08-27T20:54:13.790Z,0.60
2023-08-27T20:56:41.518Z,0.98
2023-08-27T20:59:08.904Z,1.23
2023-08-27T21:01:36.366Z,1.00
2023-08-27T21:04:04.712Z,0.60
2023-08-27T21:06:32.610Z,3.67
2023-08-27T21:08:59.757Z,1.13
2023-08-27T21:11:26.841Z,0.90
2023-08-27T21:13:54.197Z,0.98
2023-08-27T21:16:21.276Z,0.98
2023-08-27T21:18:49.043Z,0.63
2023-08-27T21:21:15.859Z,0.52
2023-08-27T21:23:42.828Z,0.65
2023-08-27T21:26:09.710Z,0.98
2023-08-27T21:28:38.132Z,0.45
2023-08-27T21:31:25.531Z,0.60
2023-08-27T21:33:52.330Z,0.82
2023-08-27T21:36:20.741Z,0.98
2023-08-27T21:38:48.765Z,0.50
2023-08-27T21:41:16.095Z,0.52
2023-08-27T21:43:45.617Z,1.95
2023-08-27T21:46:13.265Z,0.40
2023-08-27T21:48:43.257Z,0.63
2023-08-27T21:51:11.042Z,0.50
2023-08-27T21:53:38.717Z,1.83
2023-08-27T21:56:06.909Z,0.90
2023-08-27T21:58:35.511Z,0.50
2023-08-27T22:01:11.257Z,0.38
2023-08-27T22:03:38.781Z,0.50
2023-08-27T22:06:08.899Z,0.50
2023-08-27T22:08:35.806Z,0.43
2023-08-27T22:11:03.366Z,2.40
2023-08-27T22:13:31.606Z,0.40
2023-08-27T22:15:58.529Z,0.85
2023-08-27T22:18:25.352Z,0.50
2023-08-27T22:20:52.347Z,2.42
2023-08-27T22:23:19.486Z,2.63
2023-08-27T22:25:46.372Z,1.05
2023-08-27T22:28:13.214Z,2.72
2023-08-27T22:30:40.122Z,3.65
2023-08-27T22:33:07.065Z,1.67
2023-08-27T22:35:33.926Z,0.63
2023-08-27T22:38:00.803Z,0.40
2023-08-27T22:40:27.695Z,0.35
2023-08-27T22:42:54.614Z,0.50
2023-08-27T22:45:21.454Z,0.47
2023-08-27T22:47:48.396Z,2.45
2023-08-27T22:50:15.234Z,0.93
2023-08-27T22:52:42.939Z,1.20
2023-08-27T22:55:10.029Z,0.50
2023-08-27T22:57:36.864Z,0.73
2023-08-27T23:00:04.464Z,1.17
2023-08-27T23:02:31.395Z,0.43
2023-08-27T23:04:58.347Z,2.65
2023-08-27T23:07:25.192Z,0.50
2023-08-27T23:09:52.038Z,0.80
2023-08-27T23:12:19.392Z,0.55
2023-08-27T23:14:46.215Z,1.10
2023-08-27T23:17:13.089Z,0.90
2023-08-27T23:19:40.824Z,0.82
2023-08-27T23:22:08.137Z,0.40
2023-08-27T23:24:36.012Z,1.90
2023-08-27T23:27:04.036Z,0.43
2023-08-27T23:29:31.943Z,1.25
2023-08-27T23:31:58.845Z,3.42
2023-08-27T23:34:25.707Z,0.40
2023-08-27T23:36:52.628Z,2.00
2023-08-27T23:39:19.730Z,0.65
2023-08-27T23:41:47.589Z,1.25
2023-08-27T23:44:14.419Z,1.88
2023-08-27T23:46:41.431Z,0.50
2023-08-27T23:49:08.402Z,2.08
2023-08-27T23:51:35.253Z,0.40
2023-08-27T23:54:02.144Z,0.47
2023-08-27T23:56:29.147Z,0.60
2023-08-27T23:58:56.035Z,0.70
